createdAt,value
2018-06-24T00:03:00.430Z,58.40
2018-06-24T00:05:29.451Z,58.20
2018-06-24T00:07:58.430Z,57.50
2018-06-24T00:10:27.410Z,58.50
2018-06-24T00:12:56.504Z,58.40
2018-06-24T00:15:25.548Z,58.40
2018-06-24T00:17:54.506Z,60.50
2018-06-24T00:20:23.858Z,59.80
2018-06-24T00:22:52.839Z,58.20
2018-06-24T00:25:21.864Z,61.50
2018-06-24T00:27:50.872Z,61.20
2018-06-24T00:30:19.819Z,60.50
2018-06-24T00:32:48.811Z,64.30
2018-06-24T00:35:17.862Z,63.90
2018-06-24T00:37:46.832Z,62.30
2018-06-24T00:40:15.801Z,62.70
2018-06-24T00:42:44.812Z,60.50
2018-06-24T00:45:13.856Z,63.80
2018-06-24T00:47:42.846Z,59.90
2018-06-24T00:50:11.824Z,61.60
2018-06-24T00:52:40.823Z,61.00
2018-06-24T00:55:09.854Z,58.60
2018-06-24T00:57:38.823Z,58.10
2018-06-24T01:00:13.462Z,60.60
2018-06-24T01:02:42.467Z,58.10
2018-06-24T01:05:12.653Z,59.90
2018-06-24T01:07:42.646Z,62.60
2018-06-24T01:10:11.827Z,60.10
2018-06-24T01:12:41.267Z,60.60
2018-06-24T01:15:10.327Z,60.50
2018-06-24T01:17:39.337Z,63.30
2018-06-24T01:20:08.321Z,61.40
2018-06-24T01:22:37.307Z,61.20
2018-06-24T01:25:06.299Z,62.40
2018-06-24T01:27:35.303Z,60.00
2018-06-24T01:30:04.817Z,61.80
2018-06-24T01:32:33.797Z,61.30
2018-06-24T01:35:02.867Z,63.10
2018-06-24T01:40:00.579Z,65.20
2018-06-24T01:42:29.549Z,63.20
2018-06-24T01:44:58.569Z,64.60
2018-06-24T01:47:27.616Z,64.30
2018-06-24T01:49:56.576Z,63.10
2018-06-24T01:52:25.517Z,66.80
2018-06-24T01:54:54.504Z,66.30
2018-06-24T01:57:23.539Z,64.10
2018-06-24T01:59:52.537Z,65.40
2018-06-24T02:02:21.529Z,64.60
2018-06-24T02:04:50.509Z,65.80
2018-06-24T02:07:19.510Z,62.70
2018-06-24T02:09:48.485Z,63.70
2018-06-24T02:12:17.491Z,64.70
2018-06-24T02:14:46.471Z,65.40
2018-06-24T02:17:15.486Z,64.20
2018-06-24T02:19:44.577Z,63.70
2018-06-24T02:22:13.532Z,64.60
2018-06-24T02:24:42.505Z,66.60
2018-06-24T02:29:40.313Z,64.60
2018-06-24T02:34:37.964Z,67.80
2018-06-24T02:37:06.982Z,67.30
2018-06-24T02:39:35.959Z,68.90
2018-06-24T02:42:04.949Z,69.50
2018-06-24T02:44:34.089Z,70.00
2018-06-24T02:47:03.102Z,67.70
2018-06-24T02:49:32.177Z,67.40
2018-06-24T02:52:01.148Z,67.80
2018-06-24T02:54:30.141Z,70.00
2018-06-24T02:56:59.144Z,69.10
2018-06-24T02:59:28.125Z,69.50
2018-06-24T03:01:57.143Z,66.90
2018-06-24T03:04:26.103Z,68.80
2018-06-24T03:06:55.126Z,67.80
2018-06-24T03:09:24.119Z,68.80
2018-06-24T03:11:53.136Z,71.40
2018-06-24T03:14:22.212Z,68.40
2018-06-24T03:16:51.241Z,68.50
2018-06-24T03:19:20.305Z,70.70
2018-06-24T03:21:49.256Z,67.70
2018-06-24T03:24:18.244Z,67.70
2018-06-24T03:26:47.236Z,70.00
2018-06-24T03:29:16.284Z,68.80
2018-06-24T03:31:45.244Z,67.80
2018-06-24T03:34:14.287Z,68.50
2018-06-24T03:36:43.347Z,67.10
2018-06-24T03:39:12.616Z,66.50
2018-06-24T03:41:41.596Z,66.20
2018-06-24T03:44:10.573Z,70.90
2018-06-24T03:46:39.546Z,67.00
2018-06-24T03:49:08.563Z,68.70
2018-06-24T03:51:37.668Z,67.50
2018-06-24T03:54:06.814Z,68.50
2018-06-24T03:56:35.802Z,67.00
2018-06-24T03:59:04.862Z,66.80
2018-06-24T04:01:33.900Z,65.10
2018-06-24T04:04:02.850Z,67.10
2018-06-24T04:06:31.846Z,67.90
2018-06-24T04:09:00.829Z,67.20
2018-06-24T04:11:29.810Z,68.50
2018-06-24T04:13:58.801Z,67.30
2018-06-24T04:16:27.793Z,68.40
2018-06-24T04:18:56.869Z,70.90
2018-06-24T04:21:25.854Z,71.10
2018-06-24T04:23:55.121Z,69.50
2018-06-24T04:26:24.135Z,70.50
2018-06-24T04:28:53.149Z,69.70
2018-06-24T04:31:22.145Z,69.60
2018-06-24T04:33:51.293Z,72.90
2018-06-24T04:36:20.270Z,71.20
2018-06-24T04:38:49.366Z,72.20
2018-06-24T04:41:18.337Z,71.20
2018-06-24T04:43:47.313Z,71.20
2018-06-24T04:46:16.383Z,71.80
2018-06-24T04:48:45.405Z,72.20
2018-06-24T04:51:14.397Z,71.60
2018-06-24T04:53:43.370Z,72.70
2018-06-24T04:56:12.381Z,72.20
2018-06-24T04:58:41.432Z,72.20
2018-06-24T05:01:10.413Z,72.00
2018-06-24T05:06:08.070Z,72.00
2018-06-24T05:08:37.219Z,71.60
2018-06-24T05:11:06.193Z,71.10
2018-06-24T05:13:35.157Z,72.60
2018-06-24T05:16:04.304Z,71.30
2018-06-24T05:18:33.325Z,71.40
2018-06-24T05:21:02.302Z,71.40
2018-06-24T05:23:31.383Z,72.10
2018-06-24T05:26:00.418Z,71.40
2018-06-24T05:28:29.444Z,71.60
2018-06-24T05:30:58.409Z,72.20
2018-06-24T05:33:27.455Z,72.30
2018-06-24T05:35:56.443Z,72.60
2018-06-24T05:38:25.582Z,70.80
2018-06-24T05:40:54.581Z,69.60
2018-06-24T05:43:23.545Z,70.30
2018-06-24T05:45:52.537Z,71.20
2018-06-24T05:48:21.549Z,71.90
2018-06-24T05:50:50.579Z,72.30
2018-06-24T05:55:48.493Z,70.60
2018-06-24T05:58:17.513Z,71.20
2018-06-24T06:00:46.505Z,72.20
2018-06-24T06:03:15.493Z,72.70
2018-06-24T06:05:44.515Z,72.20
2018-06-24T06:08:13.567Z,72.20
2018-06-24T06:10:42.551Z,72.20
2018-06-24T06:13:11.565Z,71.80
2018-06-24T06:15:40.716Z,69.90
2018-06-24T06:18:09.716Z,71.40
2018-06-24T06:23:07.373Z,71.40
2018-06-24T06:25:36.364Z,71.40
2018-06-24T06:28:05.404Z,69.90
2018-06-24T06:30:34.509Z,72.20
2018-06-24T06:33:03.513Z,71.30
2018-06-24T06:35:32.485Z,70.90
2018-06-24T06:38:01.479Z,70.60
2018-06-24T06:40:30.674Z,70.50
2018-06-24T06:42:59.683Z,70.30
2018-06-24T06:45:28.812Z,70.50
2018-06-24T06:47:57.856Z,70.30
2018-06-24T06:50:26.856Z,71.50
2018-06-24T06:52:55.820Z,70.40
2018-06-24T06:55:24.798Z,71.40
2018-06-24T06:57:53.875Z,71.10
2018-06-24T07:00:22.824Z,71.20
2018-06-24T07:02:51.812Z,70.20
2018-06-24T07:05:20.768Z,70.70
2018-06-24T07:07:49.774Z,69.40
2018-06-24T07:15:16.113Z,70.80
2018-06-24T07:17:45.108Z,69.70
2018-06-24T07:20:14.156Z,69.40
2018-06-24T07:22:43.108Z,69.50
2018-06-24T07:25:12.101Z,69.00
2018-06-24T07:27:41.202Z,69.50
2018-06-24T07:32:38.965Z,68.40
2018-06-24T07:35:07.962Z,68.60
2018-06-24T07:40:05.698Z,68.20
2018-06-24T07:42:34.642Z,68.00
2018-06-24T07:45:03.642Z,67.70
2018-06-24T07:47:32.619Z,66.90
2018-06-24T07:50:01.790Z,66.70
2018-06-24T07:52:30.764Z,66.00
2018-06-24T07:54:59.750Z,64.80
2018-06-24T07:57:29.016Z,65.00
2018-06-24T07:59:58.069Z,65.00
2018-06-24T08:02:27.135Z,63.80
2018-06-24T08:04:56.090Z,64.00
2018-06-24T08:07:25.112Z,63.90
2018-06-24T08:09:54.155Z,64.10
2018-06-24T08:12:23.109Z,63.70
2018-06-24T08:14:52.081Z,63.60
2018-06-24T08:17:21.079Z,63.00
2018-06-24T08:19:50.066Z,62.80
2018-06-24T08:24:47.637Z,61.70
2018-06-24T08:29:45.365Z,62.60
2018-06-24T08:32:14.321Z,61.40
2018-06-24T08:34:43.313Z,61.70
2018-06-24T08:37:12.413Z,61.40
2018-06-24T08:42:10.009Z,61.60
2018-06-24T08:44:39.052Z,62.10
2018-06-24T08:47:08.083Z,62.00
2018-06-24T08:49:37.074Z,61.80
2018-06-24T08:52:06.117Z,61.50
2018-06-24T08:54:35.111Z,61.80
2018-06-24T08:57:04.309Z,61.70
2018-06-24T08:59:33.360Z,63.10
2018-06-24T09:02:02.499Z,61.80
2018-06-24T09:04:31.518Z,61.60
2018-06-24T09:07:00.514Z,60.00
2018-06-24T09:09:29.491Z,60.70
2018-06-24T09:11:58.578Z,60.60
2018-06-24T09:14:27.549Z,61.10
2018-06-24T09:16:56.501Z,60.70
2018-06-24T09:19:25.528Z,61.60
2018-06-24T09:21:54.555Z,61.10
2018-06-24T09:24:23.571Z,60.60
2018-06-24T09:26:52.594Z,60.80
2018-06-24T09:29:21.768Z,60.00
2018-06-24T09:31:50.837Z,59.00
2018-06-24T09:34:19.897Z,59.20
2018-06-24T09:36:48.877Z,59.00
2018-06-24T09:39:17.945Z,59.00
2018-06-24T09:41:46.999Z,58.50
2018-06-24T09:44:16.042Z,58.80
2018-06-24T09:46:45.126Z,57.50
2018-06-24T09:51:42.793Z,58.60
2018-06-24T09:54:11.792Z,58.20
2018-06-24T09:56:40.781Z,59.50
2018-06-24T09:59:09.829Z,58.10
2018-06-24T10:01:38.907Z,56.90
2018-06-24T10:04:07.873Z,57.10
2018-06-24T10:06:36.845Z,58.30
2018-06-24T10:09:08.747Z,57.50
2018-06-24T10:11:37.789Z,57.30
2018-06-24T10:14:06.771Z,56.00
2018-06-24T10:16:35.868Z,56.40
2018-06-24T10:19:04.983Z,55.40
2018-06-24T10:21:34.117Z,55.40
2018-06-24T10:24:03.221Z,56.60
2018-06-24T10:26:32.241Z,54.30
2018-06-24T10:29:01.229Z,55.20
2018-06-24T10:31:30.273Z,55.40
2018-06-24T10:33:59.365Z,55.20
2018-06-24T10:36:28.357Z,56.30
2018-06-24T10:38:57.356Z,55.90
2018-06-24T10:41:26.405Z,56.30
2018-06-24T10:43:55.355Z,56.20
2018-06-24T10:46:24.383Z,52.90
2018-06-24T10:48:53.368Z,51.30
2018-06-24T10:51:22.391Z,53.60
2018-06-24T10:53:51.338Z,53.70
2018-06-24T10:56:20.302Z,52.50
2018-06-24T10:58:49.339Z,53.20
2018-06-24T11:01:18.336Z,53.00
2018-06-24T11:03:47.558Z,53.10
2018-06-24T11:06:16.806Z,52.30
2018-06-24T11:08:45.875Z,51.80
2018-06-24T11:11:14.916Z,53.00
2018-06-24T11:13:43.977Z,52.40
2018-06-24T11:16:12.966Z,52.40
2018-06-24T11:18:41.962Z,51.10
2018-06-24T11:21:10.957Z,51.50
2018-06-24T11:23:39.946Z,51.00
2018-06-24T11:26:08.947Z,51.20
2018-06-24T11:31:07.172Z,50.30
2018-06-24T11:33:36.201Z,49.80
2018-06-24T11:36:05.221Z,50.70
2018-06-24T11:41:02.865Z,49.70
2018-06-24T11:43:31.897Z,50.90
2018-06-24T11:46:00.917Z,50.80
2018-06-24T11:48:29.937Z,49.60
2018-06-24T11:50:59.044Z,48.30
2018-06-24T11:53:28.081Z,50.90
2018-06-24T11:55:57.064Z,51.30
2018-06-24T11:58:26.149Z,49.40
2018-06-24T12:00:55.213Z,49.80
2018-06-24T12:03:24.411Z,50.30
2018-06-24T12:05:53.583Z,50.20
2018-06-24T12:08:22.583Z,49.10
2018-06-24T12:10:51.704Z,50.60
2018-06-24T12:13:20.769Z,48.70
2018-06-24T12:15:49.809Z,49.70
2018-06-24T12:23:16.089Z,49.90
2018-06-24T12:25:45.219Z,50.60
2018-06-24T12:28:14.177Z,48.80
2018-06-24T12:30:43.290Z,47.70
2018-06-24T12:33:12.245Z,49.80
2018-06-24T12:35:41.273Z,47.50
2018-06-24T12:38:10.257Z,48.20
2018-06-24T12:40:39.269Z,47.60
2018-06-24T12:43:08.305Z,47.10
2018-06-24T12:45:37.353Z,47.00
2018-06-24T12:48:06.317Z,49.20
2018-06-24T12:50:35.421Z,47.40
2018-06-24T12:53:04.557Z,47.10
2018-06-24T12:55:33.551Z,47.50
2018-06-24T12:58:02.563Z,48.50
2018-06-24T13:00:32.294Z,47.40
2018-06-24T13:03:00.635Z,47.80
2018-06-24T13:05:29.650Z,47.90
2018-06-24T13:07:58.721Z,47.60
2018-06-24T13:10:27.713Z,46.60
2018-06-24T13:12:56.744Z,47.80
2018-06-24T13:15:25.718Z,48.10
2018-06-24T13:17:54.681Z,45.70
2018-06-24T13:20:23.684Z,46.90
2018-06-24T13:22:52.701Z,46.50
2018-06-24T13:25:21.750Z,47.30
2018-06-24T13:27:50.871Z,47.30
2018-06-24T13:30:20.074Z,48.50
2018-06-24T13:32:49.161Z,47.90
2018-06-24T13:35:18.174Z,46.40
2018-06-24T13:37:47.210Z,47.30
2018-06-24T13:40:16.238Z,46.90
2018-06-24T13:42:45.295Z,48.00
2018-06-24T13:47:42.964Z,46.10
2018-06-24T13:50:11.936Z,47.30
2018-06-24T13:52:40.968Z,47.50
2018-06-24T13:55:10.003Z,46.30
2018-06-24T13:57:39.104Z,46.30
2018-06-24T14:00:08.496Z,45.50
2018-06-24T14:02:37.452Z,45.10
2018-06-24T14:05:06.529Z,45.20
2018-06-24T14:07:35.496Z,45.40
2018-06-24T14:10:04.483Z,45.00
2018-06-24T14:12:33.521Z,45.00
2018-06-24T14:15:02.562Z,45.10
2018-06-24T14:17:31.574Z,46.20
2018-06-24T14:20:00.598Z,45.70
2018-06-24T14:22:29.580Z,46.00
2018-06-24T14:24:58.631Z,45.70
2018-06-24T14:27:27.728Z,45.90
2018-06-24T14:29:56.674Z,46.10
2018-06-24T14:32:25.716Z,46.10
2018-06-24T14:34:54.721Z,45.70
2018-06-24T14:37:23.787Z,45.90
2018-06-24T14:39:52.878Z,45.80
2018-06-24T14:44:50.598Z,46.20
2018-06-24T14:47:19.585Z,46.60
2018-06-24T14:49:48.569Z,46.70
2018-06-24T14:52:17.577Z,46.40
2018-06-24T14:54:46.585Z,46.80
2018-06-24T14:57:15.590Z,46.70
2018-06-24T14:59:44.723Z,46.50
2018-06-24T15:02:14.368Z,46.80
2018-06-24T15:04:43.445Z,46.80
2018-06-24T15:07:12.441Z,47.20
2018-06-24T15:09:41.435Z,46.80
2018-06-24T15:12:10.485Z,46.90
2018-06-24T15:14:39.524Z,47.30
2018-06-24T15:17:08.529Z,47.80
2018-06-24T15:19:37.696Z,47.80
2018-06-24T15:24:35.416Z,47.80
2018-06-24T15:27:04.503Z,47.80
2018-06-24T15:29:33.469Z,48.30
2018-06-24T15:32:02.473Z,48.70
2018-06-24T15:34:31.469Z,48.70
2018-06-24T15:37:00.425Z,49.20
2018-06-24T15:39:29.555Z,49.40
2018-06-24T15:41:58.555Z,49.70
2018-06-24T15:44:27.750Z,49.90
2018-06-24T15:46:56.843Z,49.50
2018-06-24T15:49:25.785Z,50.30
2018-06-24T15:51:54.866Z,50.40
2018-06-24T15:54:23.837Z,50.40
2018-06-24T15:56:52.811Z,50.40
2018-06-24T15:59:21.911Z,50.80
2018-06-24T16:01:50.935Z,50.60
2018-06-24T16:04:19.927Z,50.60
2018-06-24T16:06:48.975Z,50.80
2018-06-24T16:09:17.952Z,50.80
2018-06-24T16:14:15.724Z,51.20
2018-06-24T16:16:44.785Z,51.40
2018-06-24T16:19:13.769Z,50.60
2018-06-24T16:21:42.781Z,50.90
2018-06-24T16:24:11.839Z,51.10
2018-06-24T16:26:40.884Z,51.10
2018-06-24T16:29:09.849Z,51.10
2018-06-24T16:31:39.708Z,51.70
2018-06-24T16:34:08.702Z,51.20
2018-06-24T16:36:37.722Z,51.20
2018-06-24T16:39:08.938Z,51.70
2018-06-24T16:41:37.966Z,51.70
2018-06-24T16:44:06.965Z,51.70
2018-06-24T16:46:36.145Z,51.60
2018-06-24T16:49:05.320Z,51.60
2018-06-24T16:51:34.326Z,51.60
2018-06-24T16:54:03.344Z,51.30
2018-06-24T16:56:32.324Z,51.50
2018-06-24T16:59:01.290Z,51.90
2018-06-24T17:01:30.255Z,52.00
2018-06-24T17:03:59.338Z,52.30
2018-06-24T17:06:28.320Z,52.20
2018-06-24T17:08:57.346Z,52.30
2018-06-24T17:11:26.346Z,52.50
2018-06-24T17:13:55.322Z,52.50
2018-06-24T17:16:24.390Z,52.60
2018-06-24T17:18:53.356Z,53.50
2018-06-24T17:21:22.319Z,53.30
2018-06-24T17:23:51.365Z,53.40
2018-06-24T17:26:20.564Z,53.40
2018-06-24T17:28:49.532Z,53.30
2018-06-24T17:33:47.236Z,54.00
2018-06-24T17:36:16.286Z,54.50
2018-06-24T17:38:45.235Z,54.60
2018-06-24T17:41:14.183Z,54.60
2018-06-24T17:43:43.166Z,55.20
2018-06-24T17:46:12.158Z,55.50
2018-06-24T17:48:41.171Z,55.10
2018-06-24T17:51:10.121Z,55.50
2018-06-24T17:53:39.082Z,55.60
2018-06-24T17:56:08.398Z,56.10
2018-06-24T17:58:37.358Z,56.80
2018-06-24T18:01:06.684Z,57.50
2018-06-24T18:03:35.637Z,57.40
2018-06-24T18:06:04.661Z,57.20
2018-06-24T18:08:33.613Z,58.00
2018-06-24T18:11:02.603Z,57.40
2018-06-24T18:13:31.566Z,57.60
2018-06-24T18:16:00.578Z,57.60
2018-06-24T18:18:29.577Z,56.90
2018-06-24T18:20:58.565Z,57.40
2018-06-24T18:23:27.553Z,58.20
2018-06-24T18:25:56.519Z,57.70
2018-06-24T18:28:25.529Z,57.50
2018-06-24T18:30:54.501Z,57.50
2018-06-24T18:33:23.513Z,57.10
2018-06-24T18:35:52.505Z,57.20
2018-06-24T18:38:21.557Z,57.40
2018-06-24T18:40:50.537Z,57.50
2018-06-24T18:43:19.509Z,57.20
2018-06-24T18:45:48.515Z,57.00
2018-06-24T18:48:17.532Z,57.20
2018-06-24T18:50:46.530Z,57.00
2018-06-24T18:53:15.523Z,57.20
2018-06-24T18:55:44.516Z,57.50
2018-06-24T18:58:13.545Z,57.20
2018-06-24T19:00:42.547Z,57.20
2018-06-24T19:03:11.533Z,57.40
2018-06-24T19:05:41.352Z,57.40
2018-06-24T19:08:10.501Z,57.40
2018-06-24T19:10:39.499Z,57.60
2018-06-24T19:13:08.573Z,57.80
2018-06-24T19:15:37.785Z,57.90
2018-06-24T19:18:07.531Z,58.10
2018-06-24T19:20:36.524Z,57.90
2018-06-24T19:23:05.498Z,58.00
2018-06-24T19:25:34.545Z,58.40
2018-06-24T19:30:32.727Z,58.40
2018-06-24T19:33:01.737Z,58.70
2018-06-24T19:35:30.777Z,58.50
2018-06-24T19:37:59.770Z,59.00
2018-06-24T19:40:28.856Z,58.30
2018-06-24T19:42:57.805Z,58.70
2018-06-24T19:45:26.869Z,58.70
2018-06-24T19:47:56.017Z,58.60
2018-06-24T19:52:53.720Z,58.80
2018-06-24T19:55:22.724Z,57.90
2018-06-24T19:57:51.790Z,58.80
2018-06-24T20:00:20.800Z,58.40
2018-06-24T20:02:49.796Z,58.70
2018-06-24T20:05:18.776Z,58.50
2018-06-24T20:07:47.782Z,58.70
2018-06-24T20:10:16.780Z,58.90
2018-06-24T20:12:45.856Z,58.80
2018-06-24T20:15:14.810Z,59.10
2018-06-24T20:17:43.844Z,59.30
2018-06-24T20:20:13.160Z,58.70
2018-06-24T20:22:42.122Z,57.70
2018-06-24T20:25:11.172Z,59.30
2018-06-24T20:27:40.270Z,58.60
2018-06-24T20:30:09.260Z,59.10
2018-06-24T20:32:38.236Z,59.40
2018-06-24T20:35:07.246Z,59.20
2018-06-24T20:37:36.248Z,59.20
2018-06-24T20:40:05.428Z,58.80
2018-06-24T20:42:34.504Z,59.30
2018-06-24T20:45:03.582Z,59.30
2018-06-24T20:47:32.540Z,59.20
2018-06-24T20:50:01.688Z,58.90
2018-06-24T20:52:30.668Z,59.70
2018-06-24T20:54:59.645Z,59.20
2018-06-24T20:59:57.379Z,58.80
2018-06-24T21:02:26.344Z,58.40
2018-06-24T21:04:55.319Z,59.60
2018-06-24T21:07:24.307Z,58.50
2018-06-24T21:09:53.355Z,59.40
2018-06-24T21:12:22.377Z,58.70
2018-06-24T21:14:51.501Z,59.10
2018-06-24T21:17:20.491Z,58.60
2018-06-24T21:22:18.189Z,58.50
2018-06-24T21:24:47.240Z,58.70
2018-06-24T21:27:16.213Z,58.60
2018-06-24T21:29:45.565Z,58.30
2018-06-24T21:32:14.529Z,59.40
2018-06-24T21:34:43.521Z,58.80
2018-06-24T21:37:12.477Z,58.90
2018-06-24T21:39:41.513Z,59.10
2018-06-24T21:42:10.524Z,58.70
2018-06-24T21:44:39.596Z,59.50
2018-06-24T21:49:37.303Z,58.80
2018-06-24T21:52:06.517Z,58.50
2018-06-24T21:54:35.611Z,59.30
2018-06-24T21:57:04.705Z,60.10
2018-06-24T21:59:33.741Z,59.30
2018-06-24T22:02:02.748Z,59.70
2018-06-24T22:04:31.705Z,60.00
2018-06-24T22:07:00.693Z,59.40
2018-06-24T22:09:29.721Z,60.50
2018-06-24T22:11:58.711Z,58.80
2018-06-24T22:14:27.689Z,59.20
2018-06-24T22:16:56.699Z,59.40
2018-06-24T22:19:25.715Z,59.90
2018-06-24T22:21:54.691Z,61.00
2018-06-24T22:24:23.655Z,60.00
2018-06-24T22:26:52.743Z,60.80
2018-06-24T22:29:21.773Z,60.80
2018-06-24T22:31:50.749Z,59.40
2018-06-24T22:34:19.735Z,61.50
2018-06-24T22:36:48.760Z,60.90
2018-06-24T22:39:24.349Z,60.20
2018-06-24T22:41:53.320Z,59.70
2018-06-24T22:44:22.270Z,61.90
2018-06-24T22:46:51.252Z,60.80
2018-06-24T22:49:20.268Z,60.00
2018-06-24T22:51:49.234Z,59.70
2018-06-24T22:54:18.312Z,60.40
2018-06-24T22:56:47.312Z,60.30
2018-06-24T22:59:27.639Z,62.40
2018-06-24T23:01:56.605Z,60.50
2018-06-24T23:04:25.734Z,61.70
2018-06-24T23:06:54.727Z,62.20
2018-06-24T23:09:23.777Z,60.70
2018-06-24T23:11:52.832Z,61.40
2018-06-24T23:14:21.808Z,62.60
2018-06-24T23:16:50.828Z,61.20
2018-06-24T23:19:19.843Z,60.60
2018-06-24T23:21:48.803Z,60.60
2018-06-24T23:24:18.719Z,60.30
2018-06-24T23:26:47.710Z,61.70
2018-06-24T23:29:16.716Z,63.40
2018-06-24T23:31:45.798Z,60.00
2018-06-24T23:34:14.770Z,62.90
2018-06-24T23:36:43.782Z,61.60
2018-06-24T23:39:12.779Z,62.70
2018-06-24T23:41:41.760Z,62.90
2018-06-24T23:44:10.722Z,62.80
2018-06-24T23:46:39.699Z,62.60
2018-06-24T23:49:08.747Z,63.10
2018-06-24T23:51:37.747Z,62.50
2018-06-24T23:54:06.760Z,63.30
2018-06-24T23:56:35.717Z,65.50
2018-06-24T23:59:04.924Z,65.50
